Time,TemperatureF,DewpointF,PressureIn,WindDirection,WindDirectionDegrees,WindSpeedMPH,WindSpeedGustMPH,Humidity,HourlyPrecipIn,Conditions,Clouds,dailyrainin,SoftwareType,DateUTC
2013-08-24 00:14:00,57.0,53.0,30.06,ENE,64,0.0,-999.0,86,-99.99,,,-99.99,,2013-08-24 04:14:00,
2013-08-24 00:24:00,57.0,53.0,30.06,ENE,64,0.0,-999.0,87,-99.99,,,-99.99,,2013-08-24 04:24:00,
2013-08-24 00:44:00,56.0,52.0,30.06,ENE,64,0.0,-999.0,87,-99.99,,,-99.99,,2013-08-24 04:44:00,
2013-08-24 00:53:00,56.0,52.0,30.07,ENE,65,0.0,-999.0,88,-99.99,,,-99.99,,2013-08-24 04:53:00,
2013-08-24 01:13:00,56.0,52.0,30.07,ENE,65,0.0,-999.0,88,-99.99,,,-99.99,,2013-08-24 05:13:00,
2013-08-24 01:23:00,55.0,52.0,30.08,ENE,64,0.0,-999.0,89,-99.99,,,-99.99,,2013-08-24 05:23:00,
2013-08-24 01:43:00,55.0,52.0,30.08,ENE,65,0.0,-999.0,89,-99.99,,,-99.99,,2013-08-24 05:43:00,
2013-08-24 01:53:00,55.0,52.0,30.08,ENE,64,0.0,-999.0,90,-99.99,,,-99.99,,2013-08-24 05:53:00,
2013-08-24 02:12:00,54.0,51.0,30.08,ENE,64,0.0,-999.0,90,-99.99,,,-99.99,,2013-08-24 06:12:00,
2013-08-24 02:22:00,54.0,51.0,30.08,ENE,65,0.0,-999.0,90,-99.99,,,-99.99,,2013-08-24 06:22:00,
2013-08-24 02:42:00,54.0,51.0,30.09,ENE,65,0.0,-999.0,91,-99.99,,,-99.99,,2013-08-24 06:42:00,
2013-08-24 02:52:00,54.0,51.0,30.09,ENE,65,0.0,-999.0,91,-99.99,,,-99.99,,2013-08-24 06:52:00,
2013-08-24 03:12:00,53.0,50.0,30.09,ENE,64,0.0,-999.0,91,-99.99,,,-99.99,,2013-08-24 07:12:00,
2013-08-24 03:22:00,53.0,50.0,30.09,ENE,64,0.0,-999.0,91,-99.99,,,-99.99,,2013-08-24 07:22:00,
2013-08-24 03:43:00,53.0,50.0,30.10,ENE,64,0.0,-999.0,91,-99.99,,,-99.99,,2013-08-24 07:43:00,
2013-08-24 03:53:00,53.0,51.0,30.10,ENE,64,0.0,-999.0,92,-99.99,,,-99.99,,2013-08-24 07:53:00,
2013-08-24 04:12:00,52.0,50.0,30.10,ENE,64,0.0,-999.0,92,-99.99,,,-99.99,,2013-08-24 08:12:00,
2013-08-24 04:22:00,52.0,50.0,30.10,ENE,65,0.0,-999.0,92,-99.99,,,-99.99,,2013-08-24 08:22:00,
2013-08-24 04:42:00,52.0,50.0,30.11,ENE,64,0.0,-999.0,92,-99.99,,,-99.99,,2013-08-24 08:42:00,
2013-08-24 04:52:00,51.0,49.0,30.11,ENE,64,0.0,-999.0,92,-99.99,,,-99.99,,2013-08-24 08:52:00,
2013-08-24 05:11:00,51.0,49.0,30.12,ENE,64,0.0,-999.0,92,-99.99,,,-99.99,,2013-08-24 09:11:00,
2013-08-24 05:22:00,51.0,49.0,30.12,ENE,64,0.0,-999.0,92,-99.99,,,-99.99,,2013-08-24 09:22:00,
2013-08-24 05:44:00,51.0,49.0,30.12,ENE,64,0.0,-999.0,92,-99.99,,,-99.99,,2013-08-24 09:44:00,
2013-08-24 05:53:00,50.0,48.0,30.13,ENE,64,0.0,-999.0,92,-99.99,,,-99.99,,2013-08-24 09:53:00,
2013-08-24 06:13:00,50.0,48.0,30.14,ENE,64,0.0,-999.0,92,-99.99,,,-99.99,,2013-08-24 10:13:00,
2013-08-24 06:23:00,50.0,48.0,30.14,ENE,64,0.0,-999.0,92,-99.99,,,-99.99,,2013-08-24 10:23:00,
2013-08-24 06:42:00,49.0,47.0,30.14,ENE,65,0.0,-999.0,92,-99.99,,,-99.99,,2013-08-24 10:42:00,
2013-08-24 06:53:00,49.0,47.0,30.15,ENE,64,0.0,-999.0,92,-99.99,,,-99.99,,2013-08-24 10:53:00,
2013-08-24 07:12:00,49.0,47.0,30.17,ENE,65,0.0,-999.0,93,-99.99,,,-99.99,,2013-08-24 11:12:00,
2013-08-24 07:22:00,48.0,46.0,30.18,ENE,64,0.0,-999.0,93,-99.99,,,-99.99,,2013-08-24 11:22:00,
2013-08-24 07:42:00,49.0,47.0,30.18,ENE,65,0.0,-999.0,93,-99.99,,,-99.99,,2013-08-24 11:42:00,
2013-08-24 07:52:00,49.0,47.0,30.18,ENE,64,0.0,-999.0,93,-99.99,,,-99.99,,2013-08-24 11:52:00,
2013-08-24 08:12:00,49.0,47.0,30.19,ENE,64,0.0,-999.0,93,-99.99,,,-99.99,,2013-08-24 12:12:00,
2013-08-24 08:21:00,51.0,49.0,30.20,ENE,64,0.0,-999.0,94,-99.99,,,-99.99,,2013-08-24 12:21:00,
2013-08-24 08:42:00,52.0,50.0,30.20,East,97,0.0,-999.0,94,-99.99,,,-99.99,,2013-08-24 12:42:00,
2013-08-24 08:52:00,53.0,51.0,30.21,East,97,0.0,-999.0,94,-99.99,,,-99.99,,2013-08-24 12:52:00,
2013-08-24 09:11:00,54.0,52.0,30.21,East,96,0.0,-999.0,94,-99.99,,,-99.99,,2013-08-24 13:11:00,
2013-08-24 09:22:00,55.0,53.0,30.21,East,88,0.0,-999.0,93,-99.99,,,-99.99,,2013-08-24 13:22:00,
2013-08-24 09:42:00,57.0,54.0,30.21,East,93,0.0,-999.0,91,-99.99,,,-99.99,,2013-08-24 13:42:00,
2013-08-24 09:52:00,58.0,54.0,30.21,ENE,68,0.0,-999.0,87,-99.99,,,-99.99,,2013-08-24 13:52:00,
2013-08-24 10:11:00,60.0,55.0,30.22,ENE,68,0.0,-999.0,83,-99.99,,,-99.99,,2013-08-24 14:11:00,
2013-08-24 10:22:00,62.0,54.0,30.22,ENE,68,0.0,-999.0,76,-99.99,,,-99.99,,2013-08-24 14:22:00,
2013-08-24 10:42:00,64.0,56.0,30.22,ENE,68,0.0,-999.0,74,-99.99,,,-99.99,,2013-08-24 14:42:00,
2013-08-24 10:52:00,65.0,55.0,30.21,ENE,68,0.0,-999.0,71,-99.99,,,-99.99,,2013-08-24 14:52:00,
2013-08-24 11:12:00,66.0,56.0,30.21,NNW,343,0.0,-999.0,70,-99.99,,,-99.99,,2013-08-24 15:12:00,
2013-08-24 11:22:00,68.0,55.0,30.21,NNW,346,0.0,-999.0,64,-99.99,,,-99.99,,2013-08-24 15:22:00,
2013-08-24 11:45:00,69.0,51.0,30.21,NNW,347,0.0,-999.0,53,-99.99,,,-99.99,,2013-08-24 15:45:00,
2013-08-24 11:54:00,71.0,52.0,30.21,NNW,347,0.0,-999.0,52,-99.99,,,-99.99,,2013-08-24 15:54:00,
2013-08-24 12:14:00,71.0,51.0,30.21,North,353,0.0,-999.0,49,-99.99,,,-99.99,,2013-08-24 16:14:00,
2013-08-24 12:23:00,72.0,52.0,30.21,East,83,0.0,-999.0,50,-99.99,,,-99.99,,2013-08-24 16:23:00,
2013-08-24 12:42:00,73.0,51.0,30.20,East,100,0.0,-999.0,46,-99.99,,,-99.99,,2013-08-24 16:42:00,
2013-08-24 12:53:00,73.0,53.0,30.21,ESE,120,1.0,-999.0,49,-99.99,,,-99.99,,2013-08-24 16:53:00,
2013-08-24 13:12:00,73.0,53.0,30.20,ENE,72,1.0,-999.0,50,-99.99,,,-99.99,,2013-08-24 17:12:00,
2013-08-24 13:23:00,74.0,49.0,30.19,WSW,240,0.0,-999.0,42,-99.99,,,-99.99,,2013-08-24 17:23:00,
2013-08-24 13:42:00,74.0,50.0,30.19,SSE,164,1.0,-999.0,43,-99.99,,,-99.99,,2013-08-24 17:42:00,
2013-08-24 13:52:00,75.0,54.0,30.19,NNE,25,1.0,-999.0,48,-99.99,,,-99.99,,2013-08-24 17:52:00,
2013-08-24 14:13:00,77.0,49.0,30.18,NE,35,0.0,-999.0,38,-99.99,,,-99.99,,2013-08-24 18:13:00,
2013-08-24 14:22:00,77.0,52.0,30.18,ESE,104,0.0,-999.0,42,-99.99,,,-99.99,,2013-08-24 18:22:00,
2013-08-24 14:42:00,77.0,49.0,30.18,North,0,0.0,-999.0,37,-99.99,,,-99.99,,2013-08-24 18:42:00,
2013-08-24 14:53:00,77.0,46.0,30.18,North,350,1.0,-999.0,34,-99.99,,,-99.99,,2013-08-24 18:53:00,
2013-08-24 15:12:00,78.0,49.0,30.17,NNW,342,1.0,-999.0,36,-99.99,,,-99.99,,2013-08-24 19:12:00,
2013-08-24 15:22:00,78.0,51.0,30.17,ESE,109,0.0,-999.0,39,-99.99,,,-99.99,,2013-08-24 19:22:00,
2013-08-24 15:52:00,79.0,48.0,30.16,North,356,0.0,-999.0,34,-99.99,,,-99.99,,2013-08-24 19:52:00,
2013-08-24 16:12:00,79.0,50.0,30.16,North,356,0.0,-999.0,36,-99.99,,,-99.99,,2013-08-24 20:12:00,
2013-08-24 16:22:00,80.0,48.0,30.16,North,356,0.0,-999.0,33,-99.99,,,-99.99,,2013-08-24 20:22:00,
2013-08-24 16:42:00,79.0,47.0,30.16,ESE,119,0.0,-999.0,32,-99.99,,,-99.99,,2013-08-24 20:42:00,
2013-08-24 16:52:00,81.0,50.0,30.16,NNE,30,0.0,-999.0,34,-99.99,,,-99.99,,2013-08-24 20:52:00,
2013-08-24 17:11:00,80.0,48.0,30.16,NNE,32,0.0,-999.0,33,-99.99,,,-99.99,,2013-08-24 21:11:00,
2013-08-24 17:22:00,80.0,47.0,30.15,SE,136,0.0,-999.0,32,-99.99,,,-99.99,,2013-08-24 21:22:00,
2013-08-24 17:43:00,80.0,52.0,30.15,SE,126,0.0,-999.0,38,-99.99,,,-99.99,,2013-08-24 21:43:00,
2013-08-24 17:54:00,81.0,52.0,30.15,North,0,0.0,-999.0,36,-99.99,,,-99.99,,2013-08-24 21:54:00,
2013-08-24 18:14:00,81.0,52.0,30.16,North,0,0.0,-999.0,36,-99.99,,,-99.99,,2013-08-24 22:14:00,
2013-08-24 18:24:00,82.0,57.0,30.16,North,0,0.0,-999.0,42,-99.99,,,-99.99,,2013-08-24 22:24:00,
2013-08-24 18:43:00,79.0,53.0,30.16,East,92,0.0,-999.0,40,-99.99,,,-99.99,,2013-08-24 22:43:00,
2013-08-24 18:53:00,77.0,52.0,30.16,East,92,0.0,-999.0,42,-99.99,,,-99.99,,2013-08-24 22:53:00,
2013-08-24 19:12:00,76.0,55.0,30.16,East,92,0.0,-999.0,49,-99.99,,,-99.99,,2013-08-24 23:12:00,
2013-08-24 19:22:00,74.0,57.0,30.16,East,92,0.0,-999.0,56,-99.99,,,-99.99,,2013-08-24 23:22:00,
2013-08-24 19:43:00,72.0,58.0,30.17,East,92,0.0,-999.0,61,-99.99,,,-99.99,,2013-08-24 23:43:00,
2013-08-24 19:53:00,71.0,58.0,30.18,East,92,0.0,-999.0,64,-99.99,,,-99.99,,2013-08-24 23:53:00,
2013-08-24 20:22:00,68.0,58.0,30.18,East,92,0.0,-999.0,70,-99.99,,,-99.99,,2013-08-25 00:22:00,
2013-08-24 21:11:00,64.0,57.0,30.19,East,92,0.0,-999.0,78,-99.99,,,-99.99,,2013-08-25 01:11:00,
2013-08-24 21:22:00,64.0,58.0,30.20,East,92,0.0,-999.0,81,-99.99,,,-99.99,,2013-08-25 01:22:00,
2013-08-24 21:42:00,63.0,57.0,30.20,East,92,0.0,-999.0,82,-99.99,,,-99.99,,2013-08-25 01:42:00,
2013-08-24 21:52:00,62.0,57.0,30.20,East,92,0.0,-999.0,83,-99.99,,,-99.99,,2013-08-25 01:52:00,
2013-08-24 22:12:00,62.0,57.0,30.19,East,92,0.0,-999.0,84,-99.99,,,-99.99,,2013-08-25 02:12:00,
2013-08-24 22:22:00,61.0,56.0,30.20,East,92,0.0,-999.0,85,-99.99,,,-99.99,,2013-08-25 02:22:00,
2013-08-24 22:42:00,61.0,57.0,30.20,East,92,0.0,-999.0,87,-99.99,,,-99.99,,2013-08-25 02:42:00,
2013-08-24 22:52:00,60.0,56.0,30.19,East,92,0.0,-999.0,87,-99.99,,,-99.99,,2013-08-25 02:52:00,
2013-08-24 23:11:00,60.0,56.0,30.19,East,92,0.0,-999.0,88,-99.99,,,-99.99,,2013-08-25 03:11:00,
2013-08-24 23:23:00,59.0,55.0,30.19,East,92,0.0,-999.0,88,-99.99,,,-99.99,,2013-08-25 03:23:00,
2013-08-24 23:44:00,59.0,56.0,30.19,East,92,0.0,-999.0,89,-99.99,,,-99.99,,2013-08-25 03:44:00,
2013-08-24 23:54:00,58.0,55.0,30.19,East,92,0.0,-999.0,90,-99.99,,,-99.99,,2013-08-25 03:54:00,